sensor_id;sensor_type;location;lat;lon;timestamp;P1;durP1;ratioP1;P2;durP2;ratioP2
20026;SDS011;10174;42.688;23.344;2023-04-25T00:01:04;14.75;;;6.97;;
20026;SDS011;10174;42.688;23.344;2023-04-25T00:03:33;10.60;;;6.68;;
20026;SDS011;10174;42.688;23.344;2023-04-25T00:05:58;10.25;;;6.50;;
20026;SDS011;10174;42.688;23.344;2023-04-25T00:08:28;10.38;;;6.28;;
20026;SDS011;10174;42.688;23.344;2023-04-25T00:10:54;10.15;;;6.68;;
20026;SDS011;10174;42.688;23.344;2023-04-25T00:13:20;16.90;;;7.60;;
20026;SDS011;10174;42.688;23.344;2023-04-25T00:15:46;10.30;;;7.32;;
20026;SDS011;10174;42.688;23.344;2023-04-25T00:18:13;11.75;;;7.18;;
20026;SDS011;10174;42.688;23.344;2023-04-25T00:20:39;9.68;;;6.85;;
20026;SDS011;10174;42.688;23.344;2023-04-25T00:23:04;10.85;;;8.13;;
20026;SDS011;10174;42.688;23.344;2023-04-25T00:25:30;15.18;;;7.88;;
20026;SDS011;10174;42.688;23.344;2023-04-25T00:27:55;12.73;;;8.82;;
20026;SDS011;10174;42.688;23.344;2023-04-25T00:30:20;17.27;;;9.35;;
20026;SDS011;10174;42.688;23.344;2023-04-25T00:32:46;18.63;;;10.43;;
20026;SDS011;10174;42.688;23.344;2023-04-25T00:35:11;15.38;;;9.88;;
20026;SDS011;10174;42.688;23.344;2023-04-25T00:37:37;14.38;;;9.52;;
20026;SDS011;10174;42.688;23.344;2023-04-25T00:40:04;14.23;;;9.52;;
20026;SDS011;10174;42.688;23.344;2023-04-25T00:42:31;15.48;;;9.73;;
20026;SDS011;10174;42.688;23.344;2023-04-25T00:44:57;15.32;;;9.52;;
20026;SDS011;10174;42.688;23.344;2023-04-25T00:47:24;17.23;;;9.57;;
20026;SDS011;10174;42.688;23.344;2023-04-25T00:49:50;17.25;;;9.88;;
20026;SDS011;10174;42.688;23.344;2023-04-25T00:52:16;17.50;;;10.73;;
20026;SDS011;10174;42.688;23.344;2023-04-25T00:54:41;17.05;;;10.18;;
20026;SDS011;10174;42.688;23.344;2023-04-25T00:57:07;17.52;;;10.25;;
20026;SDS011;10174;42.688;23.344;2023-04-25T00:59:34;20.17;;;10.60;;
20026;SDS011;10174;42.688;23.344;2023-04-25T01:02:01;18.65;;;9.45;;
20026;SDS011;10174;42.688;23.344;2023-04-25T01:04:29;14.18;;;9.20;;
20026;SDS011;10174;42.688;23.344;2023-04-25T01:06:55;17.90;;;9.95;;
20026;SDS011;10174;42.688;23.344;2023-04-25T01:09:20;16.20;;;9.40;;
20026;SDS011;10174;42.688;23.344;2023-04-25T01:11:47;13.88;;;8.80;;
20026;SDS011;10174;42.688;23.344;2023-04-25T01:14:13;15.13;;;9.40;;
20026;SDS011;10174;42.688;23.344;2023-04-25T01:16:38;19.55;;;10.82;;
20026;SDS011;10174;42.688;23.344;2023-04-25T01:19:10;19.42;;;10.50;;
20026;SDS011;10174;42.688;23.344;2023-04-25T01:21:39;15.55;;;10.23;;
20026;SDS011;10174;42.688;23.344;2023-04-25T01:24:05;14.93;;;9.15;;
20026;SDS011;10174;42.688;23.344;2023-04-25T01:26:31;13.18;;;8.30;;
20026;SDS011;10174;42.688;23.344;2023-04-25T01:28:57;13.38;;;8.07;;
20026;SDS011;10174;42.688;23.344;2023-04-25T01:31:24;12.50;;;7.60;;
20026;SDS011;10174;42.688;23.344;2023-04-25T01:33:52;12.68;;;8.68;;
20026;SDS011;10174;42.688;23.344;2023-04-25T01:36:18;11.95;;;8.80;;
20026;SDS011;10174;42.688;23.344;2023-04-25T01:38:43;14.30;;;8.90;;
20026;SDS011;10174;42.688;23.344;2023-04-25T01:41:09;15.27;;;8.85;;
20026;SDS011;10174;42.688;23.344;2023-04-25T01:43:34;21.27;;;9.35;;
20026;SDS011;10174;42.688;23.344;2023-04-25T01:46:00;13.82;;;9.52;;
20026;SDS011;10174;42.688;23.344;2023-04-25T01:48:26;19.38;;;9.38;;
20026;SDS011;10174;42.688;23.344;2023-04-25T01:50:51;14.13;;;8.70;;
20026;SDS011;10174;42.688;23.344;2023-04-25T01:53:17;15.20;;;9.40;;
20026;SDS011;10174;42.688;23.344;2023-04-25T01:55:42;19.25;;;10.32;;
20026;SDS011;10174;42.688;23.344;2023-04-25T01:58:08;19.75;;;10.10;;
20026;SDS011;10174;42.688;23.344;2023-04-25T02:00:35;16.45;;;10.27;;
20026;SDS011;10174;42.688;23.344;2023-04-25T02:03:03;20.88;;;10.18;;
20026;SDS011;10174;42.688;23.344;2023-04-25T02:05:33;15.57;;;9.85;;
20026;SDS011;10174;42.688;23.344;2023-04-25T02:08:00;21.55;;;11.27;;
20026;SDS011;10174;42.688;23.344;2023-04-25T02:10:26;17.45;;;11.15;;
20026;SDS011;10174;42.688;23.344;2023-04-25T02:12:51;17.48;;;11.27;;
20026;SDS011;10174;42.688;23.344;2023-04-25T02:15:16;18.08;;;10.43;;
20026;SDS011;10174;42.688;23.344;2023-04-25T02:17:42;17.50;;;10.52;;
20026;SDS011;10174;42.688;23.344;2023-04-25T02:20:07;17.98;;;10.07;;
20026;SDS011;10174;42.688;23.344;2023-04-25T02:22:33;20.67;;;10.95;;
20026;SDS011;10174;42.688;23.344;2023-04-25T02:25:00;17.75;;;11.15;;
20026;SDS011;10174;42.688;23.344;2023-04-25T02:27:25;20.38;;;10.75;;
20026;SDS011;10174;42.688;23.344;2023-04-25T02:29:51;21.95;;;11.13;;
20026;SDS011;10174;42.688;23.344;2023-04-25T02:32:16;20.35;;;11.52;;
20026;SDS011;10174;42.688;23.344;2023-04-25T02:34:42;21.52;;;11.52;;
20026;SDS011;10174;42.688;23.344;2023-04-25T02:37:07;19.23;;;11.50;;
20026;SDS011;10174;42.688;23.344;2023-04-25T02:39:32;20.30;;;11.07;;
20026;SDS011;10174;42.688;23.344;2023-04-25T02:41:58;23.80;;;11.85;;
20026;SDS011;10174;42.688;23.344;2023-04-25T02:44:23;27.25;;;14.43;;
20026;SDS011;10174;42.688;23.344;2023-04-25T02:46:49;23.00;;;11.50;;
20026;SDS011;10174;42.688;23.344;2023-04-25T02:49:14;26.67;;;12.45;;
20026;SDS011;10174;42.688;23.344;2023-04-25T02:51:39;18.63;;;10.75;;
20026;SDS011;10174;42.688;23.344;2023-04-25T02:54:05;19.25;;;11.55;;
20026;SDS011;10174;42.688;23.344;2023-04-25T02:56:31;22.15;;;12.00;;
20026;SDS011;10174;42.688;23.344;2023-04-25T02:58:56;23.02;;;12.07;;
20026;SDS011;10174;42.688;23.344;2023-04-25T03:01:22;20.92;;;12.23;;
20026;SDS011;10174;42.688;23.344;2023-04-25T03:03:47;27.65;;;12.98;;
20026;SDS011;10174;42.688;23.344;2023-04-25T03:06:13;28.92;;;14.07;;
20026;SDS011;10174;42.688;23.344;2023-04-25T03:08:38;29.50;;;15.65;;
20026;SDS011;10174;42.688;23.344;2023-04-25T03:11:04;27.20;;;14.20;;
20026;SDS011;10174;42.688;23.344;2023-04-25T03:13:29;25.75;;;13.93;;
20026;SDS011;10174;42.688;23.344;2023-04-25T03:15:55;23.67;;;12.98;;
20026;SDS011;10174;42.688;23.344;2023-04-25T03:18:20;29.92;;;14.63;;
20026;SDS011;10174;42.688;23.344;2023-04-25T03:20:45;30.63;;;14.20;;
20026;SDS011;10174;42.688;23.344;2023-04-25T03:23:11;30.30;;;13.65;;
20026;SDS011;10174;42.688;23.344;2023-04-25T03:25:37;26.65;;;14.00;;
20026;SDS011;10174;42.688;23.344;2023-04-25T03:28:02;18.25;;;11.93;;
20026;SDS011;10174;42.688;23.344;2023-04-25T03:30:28;26.05;;;13.93;;
20026;SDS011;10174;42.688;23.344;2023-04-25T03:32:53;23.25;;;12.82;;
20026;SDS011;10174;42.688;23.344;2023-04-25T03:35:18;26.42;;;13.45;;
20026;SDS011;10174;42.688;23.344;2023-04-25T03:37:44;20.95;;;13.00;;
20026;SDS011;10174;42.688;23.344;2023-04-25T03:40:12;21.95;;;13.43;;
20026;SDS011;10174;42.688;23.344;2023-04-25T03:42:37;22.05;;;13.23;;
20026;SDS011;10174;42.688;23.344;2023-04-25T03:45:03;26.20;;;13.90;;
20026;SDS011;10174;42.688;23.344;2023-04-25T03:47:29;27.52;;;15.05;;
20026;SDS011;10174;42.688;23.344;2023-04-25T03:49:54;26.35;;;14.32;;
20026;SDS011;10174;42.688;23.344;2023-04-25T03:52:20;30.27;;;15.57;;
20026;SDS011;10174;42.688;23.344;2023-04-25T03:54:45;24.42;;;14.15;;
20026;SDS011;10174;42.688;23.344;2023-04-25T03:57:10;24.83;;;14.20;;
20026;SDS011;10174;42.688;23.344;2023-04-25T03:59:36;29.15;;;14.90;;
20026;SDS011;10174;42.688;23.344;2023-04-25T04:02:01;23.80;;;14.20;;
20026;SDS011;10174;42.688;23.344;2023-04-25T04:04:26;21.73;;;12.77;;
20026;SDS011;10174;42.688;23.344;2023-04-25T04:06:52;21.38;;;12.77;;
20026;SDS011;10174;42.688;23.344;2023-04-25T04:09:17;20.67;;;13.38;;
20026;SDS011;10174;42.688;23.344;2023-04-25T04:11:44;20.50;;;12.73;;
20026;SDS011;10174;42.688;23.344;2023-04-25T04:14:10;21.30;;;12.82;;
20026;SDS011;10174;42.688;23.344;2023-04-25T04:16:35;23.08;;;15.13;;
20026;SDS011;10174;42.688;23.344;2023-04-25T04:19:01;23.02;;;14.68;;
20026;SDS011;10174;42.688;23.344;2023-04-25T04:21:26;21.40;;;14.55;;
20026;SDS011;10174;42.688;23.344;2023-04-25T04:23:52;21.60;;;14.00;;
20026;SDS011;10174;42.688;23.344;2023-04-25T04:26:19;22.77;;;13.82;;
20026;SDS011;10174;42.688;23.344;2023-04-25T04:28:44;21.23;;;13.40;;
20026;SDS011;10174;42.688;23.344;2023-04-25T04:31:10;21.67;;;12.63;;
20026;SDS011;10174;42.688;23.344;2023-04-25T04:33:35;21.95;;;14.35;;
20026;SDS011;10174;42.688;23.344;2023-04-25T04:36:01;21.33;;;13.27;;
20026;SDS011;10174;42.688;23.344;2023-04-25T04:38:28;20.35;;;12.90;;
20026;SDS011;10174;42.688;23.344;2023-04-25T04:40:54;19.83;;;13.18;;
20026;SDS011;10174;42.688;23.344;2023-04-25T04:43:19;24.30;;;14.27;;
20026;SDS011;10174;42.688;23.344;2023-04-25T04:45:44;24.05;;;14.52;;
20026;SDS011;10174;42.688;23.344;2023-04-25T04:48:10;21.08;;;14.27;;
20026;SDS011;10174;42.688;23.344;2023-04-25T04:50:36;23.27;;;14.57;;
20026;SDS011;10174;42.688;23.344;2023-04-25T04:53:02;21.63;;;13.95;;
20026;SDS011;10174;42.688;23.344;2023-04-25T04:55:27;23.80;;;15.05;;
20026;SDS011;10174;42.688;23.344;2023-04-25T04:57:53;22.38;;;14.55;;
20026;SDS011;10174;42.688;23.344;2023-04-25T05:00:18;23.05;;;14.90;;
20026;SDS011;10174;42.688;23.344;2023-04-25T05:02:45;24.67;;;14.38;;
20026;SDS011;10174;42.688;23.344;2023-04-25T05:05:11;36.55;;;22.00;;
20026;SDS011;10174;42.688;23.344;2023-04-25T05:07:36;29.80;;;17.10;;
20026;SDS011;10174;42.688;23.344;2023-04-25T05:10:02;23.52;;;16.05;;
20026;SDS011;10174;42.688;23.344;2023-04-25T05:12:28;30.88;;;17.75;;
20026;SDS011;10174;42.688;23.344;2023-04-25T05:14:53;31.63;;;18.30;;
20026;SDS011;10174;42.688;23.344;2023-04-25T05:17:19;29.42;;;17.27;;
20026;SDS011;10174;42.688;23.344;2023-04-25T05:19:44;29.00;;;18.17;;
20026;SDS011;10174;42.688;23.344;2023-04-25T05:22:10;29.48;;;17.42;;
20026;SDS011;10174;42.688;23.344;2023-04-25T05:24:35;35.20;;;22.40;;
20026;SDS011;10174;42.688;23.344;2023-04-25T05:27:01;28.73;;;19.20;;
20026;SDS011;10174;42.688;23.344;2023-04-25T05:29:26;40.65;;;23.95;;
20026;SDS011;10174;42.688;23.344;2023-04-25T05:31:52;39.33;;;25.33;;
20026;SDS011;10174;42.688;23.344;2023-04-25T05:34:17;39.25;;;23.48;;
20026;SDS011;10174;42.688;23.344;2023-04-25T05:36:43;43.05;;;26.10;;
20026;SDS011;10174;42.688;23.344;2023-04-25T05:39:08;32.40;;;20.08;;
20026;SDS011;10174;42.688;23.344;2023-04-25T05:41:34;57.03;;;30.20;;
20026;SDS011;10174;42.688;23.344;2023-04-25T05:44:00;27.27;;;16.02;;
20026;SDS011;10174;42.688;23.344;2023-04-25T05:46:25;28.08;;;15.95;;
20026;SDS011;10174;42.688;23.344;2023-04-25T05:48:50;29.40;;;16.67;;
20026;SDS011;10174;42.688;23.344;2023-04-25T05:51:16;26.35;;;15.60;;
20026;SDS011;10174;42.688;23.344;2023-04-25T05:53:43;33.08;;;15.40;;
20026;SDS011;10174;42.688;23.344;2023-04-25T05:56:09;23.35;;;14.52;;
20026;SDS011;10174;42.688;23.344;2023-04-25T05:58:34;24.70;;;14.23;;
20026;SDS011;10174;42.688;23.344;2023-04-25T06:01:00;22.17;;;13.10;;
20026;SDS011;10174;42.688;23.344;2023-04-25T06:03:27;22.42;;;11.82;;
20026;SDS011;10174;42.688;23.344;2023-04-25T06:05:53;17.52;;;10.85;;
20026;SDS011;10174;42.688;23.344;2023-04-25T06:08:18;16.05;;;9.82;;
20026;SDS011;10174;42.688;23.344;2023-04-25T06:10:44;18.25;;;9.80;;
20026;SDS011;10174;42.688;23.344;2023-04-25T06:13:09;14.02;;;10.18;;
20026;SDS011;10174;42.688;23.344;2023-04-25T06:15:35;14.88;;;7.78;;
20026;SDS011;10174;42.688;23.344;2023-04-25T06:18:00;19.55;;;9.68;;
20026;SDS011;10174;42.688;23.344;2023-04-25T06:20:26;15.43;;;9.23;;
20026;SDS011;10174;42.688;23.344;2023-04-25T06:22:51;26.73;;;12.32;;
20026;SDS011;10174;42.688;23.344;2023-04-25T06:25:17;22.73;;;10.63;;
20026;SDS011;10174;42.688;23.344;2023-04-25T06:27:42;23.95;;;11.05;;
20026;SDS011;10174;42.688;23.344;2023-04-25T06:30:08;26.45;;;10.70;;
20026;SDS011;10174;42.688;23.344;2023-04-25T06:32:34;18.67;;;10.20;;
20026;SDS011;10174;42.688;23.344;2023-04-25T06:35:00;26.83;;;12.18;;
20026;SDS011;10174;42.688;23.344;2023-04-25T06:37:26;23.33;;;11.70;;
20026;SDS011;10174;42.688;23.344;2023-04-25T06:39:51;20.85;;;11.23;;
20026;SDS011;10174;42.688;23.344;2023-04-25T06:42:17;19.73;;;11.45;;
20026;SDS011;10174;42.688;23.344;2023-04-25T06:44:43;21.08;;;9.80;;
20026;SDS011;10174;42.688;23.344;2023-04-25T06:47:08;21.35;;;10.23;;
20026;SDS011;10174;42.688;23.344;2023-04-25T06:49:33;22.92;;;10.90;;
20026;SDS011;10174;42.688;23.344;2023-04-25T06:51:59;16.52;;;11.10;;
20026;SDS011;10174;42.688;23.344;2023-04-25T06:54:24;34.22;;;12.18;;
20026;SDS011;10174;42.688;23.344;2023-04-25T06:56:52;23.73;;;11.82;;
20026;SDS011;10174;42.688;23.344;2023-04-25T06:59:18;20.42;;;11.35;;
20026;SDS011;10174;42.688;23.344;2023-04-25T07:01:43;21.90;;;12.35;;
20026;SDS011;10174;42.688;23.344;2023-04-25T07:04:08;23.52;;;13.18;;
20026;SDS011;10174;42.688;23.344;2023-04-25T07:06:34;35.95;;;15.07;;
20026;SDS011;10174;42.688;23.344;2023-04-25T07:09:03;26.60;;;13.95;;
20026;SDS011;10174;42.688;23.344;2023-04-25T07:11:28;18.58;;;12.18;;
20026;SDS011;10174;42.688;23.344;2023-04-25T07:13:53;29.98;;;10.63;;
20026;SDS011;10174;42.688;23.344;2023-04-25T07:16:19;24.10;;;10.65;;
20026;SDS011;10174;42.688;23.344;2023-04-25T07:18:44;17.80;;;10.75;;
20026;SDS011;10174;42.688;23.344;2023-04-25T07:21:10;18.20;;;9.82;;
20026;SDS011;10174;42.688;23.344;2023-04-25T07:23:35;22.25;;;10.85;;
20026;SDS011;10174;42.688;23.344;2023-04-25T07:26:01;15.95;;;9.50;;
20026;SDS011;10174;42.688;23.344;2023-04-25T07:28:26;21.08;;;10.65;;
20026;SDS011;10174;42.688;23.344;2023-04-25T07:30:51;22.40;;;11.52;;
20026;SDS011;10174;42.688;23.344;2023-04-25T07:33:17;23.42;;;10.05;;
20026;SDS011;10174;42.688;23.344;2023-04-25T07:35:42;27.20;;;11.27;;
20026;SDS011;10174;42.688;23.344;2023-04-25T07:38:07;32.35;;;12.30;;
20026;SDS011;10174;42.688;23.344;2023-04-25T07:40:33;17.27;;;9.25;;
20026;SDS011;10174;42.688;23.344;2023-04-25T07:42:59;21.70;;;11.68;;
20026;SDS011;10174;42.688;23.344;2023-04-25T07:45:24;25.10;;;11.27;;
20026;SDS011;10174;42.688;23.344;2023-04-25T07:47:50;27.98;;;13.93;;
20026;SDS011;10174;42.688;23.344;2023-04-25T07:50:16;21.83;;;12.20;;
20026;SDS011;10174;42.688;23.344;2023-04-25T07:52:41;30.63;;;15.98;;
20026;SDS011;10174;42.688;23.344;2023-04-25T07:55:07;29.98;;;14.35;;
20026;SDS011;10174;42.688;23.344;2023-04-25T07:57:32;30.17;;;11.07;;
20026;SDS011;10174;42.688;23.344;2023-04-25T07:59:58;20.02;;;9.70;;
20026;SDS011;10174;42.688;23.344;2023-04-25T08:02:23;23.50;;;10.50;;
20026;SDS011;10174;42.688;23.344;2023-04-25T08:04:51;21.08;;;9.93;;
20026;SDS011;10174;42.688;23.344;2023-04-25T08:07:16;23.75;;;11.07;;
20026;SDS011;10174;42.688;23.344;2023-04-25T08:09:41;17.30;;;9.05;;
20026;SDS011;10174;42.688;23.344;2023-04-25T08:12:07;16.83;;;9.35;;
20026;SDS011;10174;42.688;23.344;2023-04-25T08:14:32;18.48;;;8.90;;
20026;SDS011;10174;42.688;23.344;2023-04-25T08:17:01;21.95;;;8.48;;
20026;SDS011;10174;42.688;23.344;2023-04-25T08:19:28;20.60;;;8.00;;
20026;SDS011;10174;42.688;23.344;2023-04-25T08:21:54;17.30;;;8.25;;
20026;SDS011;10174;42.688;23.344;2023-04-25T08:24:20;20.10;;;7.97;;
20026;SDS011;10174;42.688;23.344;2023-04-25T08:26:46;30.85;;;7.20;;
20026;SDS011;10174;42.688;23.344;2023-04-25T08:29:11;23.88;;;7.15;;
20026;SDS011;10174;42.688;23.344;2023-04-25T08:31:37;17.83;;;6.95;;
20026;SDS011;10174;42.688;23.344;2023-04-25T08:34:02;14.95;;;6.40;;
20026;SDS011;10174;42.688;23.344;2023-04-25T08:36:27;10.93;;;5.15;;
20026;SDS011;10174;42.688;23.344;2023-04-25T08:38:53;15.07;;;6.55;;
20026;SDS011;10174;42.688;23.344;2023-04-25T08:41:19;12.93;;;6.35;;
20026;SDS011;10174;42.688;23.344;2023-04-25T08:43:46;9.77;;;5.97;;
20026;SDS011;10174;42.688;23.344;2023-04-25T08:46:13;12.07;;;6.57;;
20026;SDS011;10174;42.688;23.344;2023-04-25T08:48:44;23.27;;;11.30;;
20026;SDS011;10174;42.688;23.344;2023-04-25T08:51:10;25.48;;;12.80;;
20026;SDS011;10174;42.688;23.344;2023-04-25T08:53:45;18.77;;;9.65;;
20026;SDS011;10174;42.688;23.344;2023-04-25T08:56:15;25.27;;;11.45;;
20026;SDS011;10174;42.688;23.344;2023-04-25T08:58:50;27.88;;;13.48;;
20026;SDS011;10174;42.688;23.344;2023-04-25T09:01:15;27.85;;;14.32;;
20026;SDS011;10174;42.688;23.344;2023-04-25T09:03:42;32.15;;;15.68;;
20026;SDS011;10174;42.688;23.344;2023-04-25T09:06:09;32.75;;;16.17;;
20026;SDS011;10174;42.688;23.344;2023-04-25T09:08:36;22.33;;;14.15;;
20026;SDS011;10174;42.688;23.344;2023-04-25T09:11:02;23.85;;;13.10;;
20026;SDS011;10174;42.688;23.344;2023-04-25T09:13:28;14.20;;;9.50;;
20026;SDS011;10174;42.688;23.344;2023-04-25T09:15:54;17.45;;;10.15;;
20026;SDS011;10174;42.688;23.344;2023-04-25T09:18:28;14.68;;;9.93;;
20026;SDS011;10174;42.688;23.344;2023-04-25T09:20:55;18.55;;;9.35;;
20026;SDS011;10174;42.688;23.344;2023-04-25T09:23:22;14.55;;;7.75;;
20026;SDS011;10174;42.688;23.344;2023-04-25T09:25:49;9.48;;;6.32;;
20026;SDS011;10174;42.688;23.344;2023-04-25T09:28:16;14.00;;;6.68;;
20026;SDS011;10174;42.688;23.344;2023-04-25T09:30:54;12.30;;;6.63;;
20026;SDS011;10174;42.688;23.344;2023-04-25T09:33:20;9.75;;;5.88;;
20026;SDS011;10174;42.688;23.344;2023-04-25T09:35:52;9.10;;;5.53;;
20026;SDS011;10174;42.688;23.344;2023-04-25T09:38:20;13.07;;;6.68;;
20026;SDS011;10174;42.688;23.344;2023-04-25T09:40:47;11.80;;;6.75;;
20026;SDS011;10174;42.688;23.344;2023-04-25T09:43:24;9.10;;;5.75;;
20026;SDS011;10174;42.688;23.344;2023-04-25T09:45:50;7.68;;;4.63;;
20026;SDS011;10174;42.688;23.344;2023-04-25T09:48:18;11.40;;;4.72;;
20026;SDS011;10174;42.688;23.344;2023-04-25T09:50:45;10.68;;;5.20;;
20026;SDS011;10174;42.688;23.344;2023-04-25T09:53:28;10.38;;;5.80;;
20026;SDS011;10174;42.688;23.344;2023-04-25T09:55:54;14.13;;;5.15;;
20026;SDS011;10174;42.688;23.344;2023-04-25T09:58:21;18.48;;;10.23;;
20026;SDS011;10174;42.688;23.344;2023-04-25T10:00:49;10.48;;;5.40;;
20026;SDS011;10174;42.688;23.344;2023-04-25T10:03:17;14.30;;;4.97;;
20026;SDS011;10174;42.688;23.344;2023-04-25T10:05:45;16.30;;;5.30;;
20026;SDS011;10174;42.688;23.344;2023-04-25T10:08:13;12.20;;;6.20;;
20026;SDS011;10174;42.688;23.344;2023-04-25T10:10:39;22.63;;;7.50;;
20026;SDS011;10174;42.688;23.344;2023-04-25T10:13:05;12.88;;;7.78;;
20026;SDS011;10174;42.688;23.344;2023-04-25T10:15:32;10.68;;;5.20;;
20026;SDS011;10174;42.688;23.344;2023-04-25T10:18:00;9.38;;;5.25;;
20026;SDS011;10174;42.688;23.344;2023-04-25T10:20:26;11.40;;;5.60;;
20026;SDS011;10174;42.688;23.344;2023-04-25T10:22:52;20.60;;;7.30;;
20026;SDS011;10174;42.688;23.344;2023-04-25T10:25:21;12.13;;;5.13;;
20026;SDS011;10174;42.688;23.344;2023-04-25T10:27:50;30.88;;;10.43;;
20026;SDS011;10174;42.688;23.344;2023-04-25T10:30:17;55.00;;;20.45;;
20026;SDS011;10174;42.688;23.344;2023-04-25T10:32:43;38.47;;;13.57;;
20026;SDS011;10174;42.688;23.344;2023-04-25T10:35:24;4.93;;;1.95;;
20026;SDS011;10174;42.688;23.344;2023-04-25T10:40:23;4.00;;;2.15;;
20026;SDS011;10174;42.688;23.344;2023-04-25T10:42:49;5.00;;;1.80;;
20026;SDS011;10174;42.688;23.344;2023-04-25T10:45:16;8.55;;;4.18;;
20026;SDS011;10174;42.688;23.344;2023-04-25T10:47:45;4.50;;;1.60;;
20026;SDS011;10174;42.688;23.344;2023-04-25T10:50:10;6.38;;;2.90;;
20026;SDS011;10174;42.688;23.344;2023-04-25T10:52:38;4.22;;;1.40;;
20026;SDS011;10174;42.688;23.344;2023-04-25T10:55:04;8.02;;;1.65;;
20026;SDS011;10174;42.688;23.344;2023-04-25T10:59:59;8.48;;;5.30;;
20026;SDS011;10174;42.688;23.344;2023-04-25T11:02:26;6.75;;;1.60;;
20026;SDS011;10174;42.688;23.344;2023-04-25T11:04:53;3.47;;;1.50;;
20026;SDS011;10174;42.688;23.344;2023-04-25T11:07:28;4.07;;;1.55;;
20026;SDS011;10174;42.688;23.344;2023-04-25T11:10:03;1.98;;;1.58;;
20026;SDS011;10174;42.688;23.344;2023-04-25T11:12:32;3.33;;;2.05;;
20026;SDS011;10174;42.688;23.344;2023-04-25T11:15:02;1.50;;;1.00;;
20026;SDS011;10174;42.688;23.344;2023-04-25T11:17:29;1.98;;;0.93;;
20026;SDS011;10174;42.688;23.344;2023-04-25T11:19:55;6.35;;;2.35;;
20026;SDS011;10174;42.688;23.344;2023-04-25T11:22:21;4.40;;;1.50;;
20026;SDS011;10174;42.688;23.344;2023-04-25T11:24:47;4.10;;;1.60;;
20026;SDS011;10174;42.688;23.344;2023-04-25T11:27:12;7.70;;;1.70;;
20026;SDS011;10174;42.688;23.344;2023-04-25T11:29:38;2.45;;;1.63;;
20026;SDS011;10174;42.688;23.344;2023-04-25T11:32:03;3.53;;;1.20;;
20026;SDS011;10174;42.688;23.344;2023-04-25T11:34:29;3.95;;;1.48;;
20026;SDS011;10174;42.688;23.344;2023-04-25T11:36:56;3.20;;;1.70;;
20026;SDS011;10174;42.688;23.344;2023-04-25T11:39:23;5.63;;;1.70;;
20026;SDS011;10174;42.688;23.344;2023-04-25T11:41:50;2.15;;;1.52;;
20026;SDS011;10174;42.688;23.344;2023-04-25T11:44:16;5.53;;;1.70;;
20026;SDS011;10174;42.688;23.344;2023-04-25T11:46:42;6.40;;;1.90;;
20026;SDS011;10174;42.688;23.344;2023-04-25T11:49:08;5.70;;;1.75;;
20026;SDS011;10174;42.688;23.344;2023-04-25T11:51:38;2.80;;;1.30;;
20026;SDS011;10174;42.688;23.344;2023-04-25T11:54:13;8.10;;;1.50;;
20026;SDS011;10174;42.688;23.344;2023-04-25T11:56:43;4.68;;;0.98;;
20026;SDS011;10174;42.688;23.344;2023-04-25T11:59:09;5.43;;;1.50;;
20026;SDS011;10174;42.688;23.344;2023-04-25T12:01:36;5.80;;;1.60;;
20026;SDS011;10174;42.688;23.344;2023-04-25T12:04:12;3.78;;;1.10;;
20026;SDS011;10174;42.688;23.344;2023-04-25T12:06:45;9.23;;;4.30;;
20026;SDS011;10174;42.688;23.344;2023-04-25T12:09:19;4.60;;;1.73;;
20026;SDS011;10174;42.688;23.344;2023-04-25T12:11:52;1.98;;;1.08;;
20026;SDS011;10174;42.688;23.344;2023-04-25T12:14:26;2.40;;;1.15;;
20026;SDS011;10174;42.688;23.344;2023-04-25T12:16:54;1.65;;;0.90;;
20026;SDS011;10174;42.688;23.344;2023-04-25T12:19:22;5.10;;;2.85;;
20026;SDS011;10174;42.688;23.344;2023-04-25T12:21:48;4.47;;;1.27;;
20026;SDS011;10174;42.688;23.344;2023-04-25T12:24:17;6.30;;;1.50;;
20026;SDS011;10174;42.688;23.344;2023-04-25T12:29:34;3.40;;;1.25;;
20026;SDS011;10174;42.688;23.344;2023-04-25T12:31:59;2.78;;;1.50;;
20026;SDS011;10174;42.688;23.344;2023-04-25T12:34:27;9.45;;;1.85;;
20026;SDS011;10174;42.688;23.344;2023-04-25T12:36:53;10.02;;;1.88;;
20026;SDS011;10174;42.688;23.344;2023-04-25T12:39:22;7.28;;;2.03;;
20026;SDS011;10174;42.688;23.344;2023-04-25T12:41:49;9.50;;;2.78;;
20026;SDS011;10174;42.688;23.344;2023-04-25T12:44:17;8.93;;;2.80;;
20026;SDS011;10174;42.688;23.344;2023-04-25T12:46:42;7.70;;;2.30;;
20026;SDS011;10174;42.688;23.344;2023-04-25T12:49:08;5.28;;;2.03;;
20026;SDS011;10174;42.688;23.344;2023-04-25T12:51:34;6.47;;;2.15;;
20026;SDS011;10174;42.688;23.344;2023-04-25T12:54:01;8.15;;;2.45;;
20026;SDS011;10174;42.688;23.344;2023-04-25T12:56:27;6.70;;;3.00;;
20026;SDS011;10174;42.688;23.344;2023-04-25T12:58:53;7.35;;;3.33;;
20026;SDS011;10174;42.688;23.344;2023-04-25T13:01:19;3.45;;;2.20;;
20026;SDS011;10174;42.688;23.344;2023-04-25T13:03:46;3.35;;;1.73;;
20026;SDS011;10174;42.688;23.344;2023-04-25T13:06:12;6.95;;;2.78;;
20026;SDS011;10174;42.688;23.344;2023-04-25T13:08:38;6.30;;;2.55;;
20026;SDS011;10174;42.688;23.344;2023-04-25T13:11:04;22.95;;;5.50;;
20026;SDS011;10174;42.688;23.344;2023-04-25T13:13:31;16.70;;;3.40;;
20026;SDS011;10174;42.688;23.344;2023-04-25T13:15:57;17.38;;;3.90;;
20026;SDS011;10174;42.688;23.344;2023-04-25T13:18:23;8.40;;;3.17;;
20026;SDS011;10174;42.688;23.344;2023-04-25T13:20:54;10.43;;;3.08;;
20026;SDS011;10174;42.688;23.344;2023-04-25T13:23:20;8.23;;;3.05;;
20026;SDS011;10174;42.688;23.344;2023-04-25T13:25:46;12.52;;;3.63;;
20026;SDS011;10174;42.688;23.344;2023-04-25T13:28:12;9.35;;;3.50;;
20026;SDS011;10174;42.688;23.344;2023-04-25T13:30:37;8.73;;;3.70;;
20026;SDS011;10174;42.688;23.344;2023-04-25T13:33:03;13.88;;;4.18;;
20026;SDS011;10174;42.688;23.344;2023-04-25T13:35:29;8.13;;;3.28;;
20026;SDS011;10174;42.688;23.344;2023-04-25T13:37:56;12.02;;;3.63;;
20026;SDS011;10174;42.688;23.344;2023-04-25T13:40:21;14.02;;;4.63;;
20026;SDS011;10174;42.688;23.344;2023-04-25T13:42:47;11.20;;;4.32;;
20026;SDS011;10174;42.688;23.344;2023-04-25T13:45:12;9.88;;;4.30;;
20026;SDS011;10174;42.688;23.344;2023-04-25T13:47:38;12.48;;;5.60;;
20026;SDS011;10174;42.688;23.344;2023-04-25T13:50:04;12.57;;;4.38;;
20026;SDS011;10174;42.688;23.344;2023-04-25T13:52:30;12.68;;;4.45;;
20026;SDS011;10174;42.688;23.344;2023-04-25T13:54:56;11.25;;;4.70;;
20026;SDS011;10174;42.688;23.344;2023-04-25T13:57:22;13.55;;;4.45;;
20026;SDS011;10174;42.688;23.344;2023-04-25T13:59:48;16.23;;;4.55;;
20026;SDS011;10174;42.688;23.344;2023-04-25T14:02:13;16.92;;;6.70;;
20026;SDS011;10174;42.688;23.344;2023-04-25T14:04:39;9.23;;;3.40;;
20026;SDS011;10174;42.688;23.344;2023-04-25T14:07:05;10.27;;;4.05;;
20026;SDS011;10174;42.688;23.344;2023-04-25T14:09:30;7.25;;;3.25;;
20026;SDS011;10174;42.688;23.344;2023-04-25T14:11:56;7.00;;;2.33;;
20026;SDS011;10174;42.688;23.344;2023-04-25T14:14:21;3.05;;;2.00;;
20026;SDS011;10174;42.688;23.344;2023-04-25T14:16:48;4.40;;;1.77;;
20026;SDS011;10174;42.688;23.344;2023-04-25T14:19:15;2.42;;;1.80;;
20026;SDS011;10174;42.688;23.344;2023-04-25T14:21:41;2.72;;;1.85;;